createdAt,value
2023-04-13T00:02:00.384Z,6.39
2023-04-13T00:04:04.881Z,6.16
2023-04-13T00:06:10.946Z,6.29
2023-04-13T00:08:14.253Z,6.23
2023-04-13T00:10:19.067Z,6.23
2023-04-13T00:12:21.878Z,6.04
2023-04-13T00:14:27.596Z,5.75
2023-04-13T00:16:31.741Z,6.16
2023-04-13T00:18:34.619Z,5.18
2023-04-13T00:20:37.500Z,6.01
2023-04-13T00:22:40.565Z,6.17
2023-04-13T00:24:44.166Z,6.13
2023-04-13T00:26:46.995Z,6.13
2023-04-13T00:28:49.830Z,6.12
2023-04-13T00:30:56.148Z,6.12
2023-04-13T00:32:58.988Z,6.10
2023-04-13T00:35:01.895Z,4.87
2023-04-13T00:37:07.092Z,6.07
2023-04-13T00:39:09.916Z,5.11
2023-04-13T00:41:13.953Z,5.95
2023-04-13T00:43:17.238Z,4.85
2023-04-13T00:45:20.444Z,5.97
2023-04-13T00:47:27.549Z,5.96
2023-04-13T00:49:31.295Z,5.96
2023-04-13T00:51:34.311Z,5.91
2023-04-13T00:53:37.445Z,4.97
2023-04-13T00:55:42.136Z,5.83
2023-04-13T00:57:45.184Z,5.78
2023-04-13T00:59:49.513Z,5.59
2023-04-13T01:01:56.424Z,5.62
2023-04-13T01:04:01.044Z,5.75
2023-04-13T01:06:17.894Z,5.80
2023-04-13T01:08:27.481Z,5.80
2023-04-13T01:10:37.851Z,5.82
2023-04-13T01:12:47.038Z,5.77
2023-04-13T01:14:56.729Z,5.73
2023-04-13T01:17:05.833Z,5.72
2023-04-13T01:19:21.651Z,5.66
2023-04-13T01:21:27.709Z,5.20
2023-04-13T01:23:46.119Z,5.62
2023-04-13T01:25:56.503Z,5.62
2023-04-13T01:28:07.389Z,5.34
2023-04-13T01:30:11.816Z,5.60
2023-04-13T01:32:17.324Z,5.55
2023-04-13T01:34:21.772Z,5.49
2023-04-13T01:36:26.145Z,5.50
2023-04-13T01:38:29.903Z,5.44
2023-04-13T01:40:37.073Z,5.39
2023-04-13T01:42:40.044Z,5.30
2023-04-13T01:44:45.590Z,5.30
2023-04-13T01:46:53.670Z,5.24
2023-04-13T01:49:24.067Z,4.88
2023-04-13T01:51:58.548Z,5.14
2023-04-13T01:54:14.785Z,5.13
2023-04-13T01:56:23.033Z,4.75
2023-04-13T01:58:33.706Z,4.57
2023-04-13T02:00:44.024Z,4.60
2023-04-13T02:02:49.276Z,5.08
2023-04-13T02:04:52.275Z,5.07
2023-04-13T02:06:55.163Z,5.06
2023-04-13T02:09:06.957Z,4.43
2023-04-13T02:11:12.513Z,4.09
2023-04-13T02:13:15.381Z,4.95
2023-04-13T02:15:18.532Z,4.98
2023-04-13T02:17:25.507Z,4.97
2023-04-13T02:19:28.860Z,4.54
2023-04-13T02:21:31.673Z,4.78
2023-04-13T02:23:35.398Z,4.92
2023-04-13T02:25:38.702Z,4.85
2023-04-13T02:27:40.483Z,4.84
2023-04-13T02:29:43.258Z,4.84
2023-04-13T02:31:46.338Z,4.84
2023-04-13T02:33:51.656Z,4.83
2023-04-13T02:35:54.519Z,3.57
2023-04-13T02:37:58.119Z,4.51
2023-04-13T02:40:01.066Z,4.81
2023-04-13T02:42:04.330Z,4.61
2023-04-13T02:44:08.685Z,4.78
2023-04-13T02:46:21.418Z,4.82
2023-04-13T02:48:29.063Z,4.78
2023-04-13T02:50:34.137Z,4.73
2023-04-13T02:52:43.787Z,4.69
2023-04-13T02:54:46.706Z,4.15
2023-04-13T02:56:49.587Z,4.60
2023-04-13T02:58:52.627Z,4.72
2023-04-13T03:00:56.629Z,4.73
2023-04-13T03:03:00.468Z,4.54
2023-04-13T03:05:09.177Z,4.63
2023-04-13T03:07:14.296Z,4.71
2023-04-13T03:09:21.134Z,4.72
2023-04-13T03:11:29.250Z,4.72
2023-04-13T03:13:54.218Z,4.42
2023-04-13T03:15:57.938Z,4.75
2023-04-13T03:18:04.250Z,4.18
2023-04-13T03:20:13.304Z,4.17
2023-04-13T03:22:21.884Z,4.13
2023-04-13T03:24:27.387Z,4.66
2023-04-13T03:26:31.702Z,4.70
2023-04-13T03:28:38.093Z,4.76
2023-04-13T03:30:41.809Z,4.59
2023-04-13T03:32:44.968Z,4.69
2023-04-13T03:34:47.776Z,3.48
2023-04-13T03:36:51.292Z,4.71
2023-04-13T03:38:58.100Z,4.65
2023-04-13T03:41:03.770Z,4.66
2023-04-13T03:43:08.523Z,3.84
2023-04-13T03:45:16.760Z,4.70
2023-04-13T03:47:20.372Z,4.66
2023-04-13T03:49:23.907Z,4.65
2023-04-13T03:51:28.106Z,4.68
2023-04-13T03:53:31.128Z,4.75
2023-04-13T03:55:35.886Z,4.78
2023-04-13T03:57:43.084Z,4.75
2023-04-13T03:59:50.778Z,4.75
2023-04-13T04:02:03.177Z,4.78
2023-04-13T04:04:07.600Z,4.78
2023-04-13T04:06:11.344Z,4.80
2023-04-13T04:08:17.424Z,4.81
2023-04-13T04:10:21.585Z,4.78
2023-04-13T04:12:25.949Z,4.78
2023-04-13T04:14:28.797Z,4.76
2023-04-13T04:16:39.786Z,4.47
2023-04-13T04:18:49.094Z,4.60
2023-04-13T04:20:54.779Z,4.77
2023-04-13T04:23:01.057Z,4.79
2023-04-13T04:25:08.924Z,4.81
2023-04-13T04:27:14.430Z,4.79
2023-04-13T04:29:22.170Z,4.82
2023-04-13T04:31:36.994Z,4.89
2023-04-13T04:33:46.988Z,4.93
2023-04-13T04:35:51.841Z,4.77
2023-04-13T04:38:00.722Z,4.91
2023-04-13T04:40:07.662Z,4.12
2023-04-13T04:42:10.908Z,3.80
2023-04-13T04:44:16.899Z,4.62
2023-04-13T04:46:22.118Z,5.00
2023-04-13T04:48:31.712Z,4.99
2023-04-13T04:50:34.718Z,5.02
2023-04-13T04:52:45.260Z,5.05
2023-04-13T04:54:53.872Z,3.59
2023-04-13T04:56:57.992Z,4.16
2023-04-13T04:59:01.766Z,5.08
2023-04-13T05:01:15.265Z,5.12
2023-04-13T05:03:20.627Z,4.83
2023-04-13T05:05:30.242Z,5.12
2023-04-13T05:07:38.160Z,5.15
2023-04-13T05:09:42.154Z,5.19
2023-04-13T05:11:44.974Z,5.16
2023-04-13T05:13:49.794Z,3.40
2023-04-13T05:15:56.683Z,4.61
2023-04-13T05:18:00.059Z,5.14
2023-04-13T05:20:07.933Z,5.13
2023-04-13T05:22:26.050Z,5.17
2023-04-13T05:24:36.068Z,5.17
2023-04-13T05:26:44.757Z,5.20
2023-04-13T05:28:51.756Z,5.22
2023-04-13T05:30:54.714Z,5.26
2023-04-13T05:32:57.930Z,5.26
2023-04-13T05:35:01.828Z,5.23
2023-04-13T05:37:08.597Z,5.27
2023-04-13T05:39:11.851Z,5.31
2023-04-13T05:41:14.606Z,5.36
2023-04-13T05:43:17.845Z,5.37
2023-04-13T05:45:25.054Z,5.38
2023-04-13T05:47:48.141Z,5.33
2023-04-13T05:49:52.497Z,5.31
2023-04-13T05:51:57.670Z,5.37
2023-04-13T05:54:13.896Z,5.42
2023-04-13T05:56:19.017Z,5.18
2023-04-13T05:58:22.084Z,5.40
2023-04-13T06:00:32.747Z,5.51
2023-04-13T06:02:41.861Z,5.59
2023-04-13T06:04:48.898Z,5.33
2023-04-13T06:06:52.783Z,5.62
2023-04-13T06:08:55.496Z,5.60
2023-04-13T06:10:59.944Z,5.59
2023-04-13T06:13:02.703Z,5.62
2023-04-13T06:15:06.769Z,5.68
2023-04-13T06:17:09.667Z,5.47
2023-04-13T06:19:13.091Z,5.80
2023-04-13T06:21:16.420Z,5.63
2023-04-13T06:23:22.736Z,5.96
2023-04-13T06:25:29.096Z,5.96
2023-04-13T06:27:33.828Z,3.98
2023-04-13T06:29:38.185Z,6.04
2023-04-13T06:31:45.057Z,5.11
2023-04-13T06:33:51.981Z,5.08
2023-04-13T06:36:00.129Z,6.18
2023-04-13T06:38:03.922Z,5.81
2023-04-13T06:40:22.024Z,6.56
2023-04-13T06:42:36.622Z,6.59
2023-04-13T06:44:59.351Z,6.57
2023-04-13T06:47:07.458Z,6.51
2023-04-13T06:49:10.983Z,6.49
2023-04-13T06:51:15.482Z,6.47
2023-04-13T06:53:18.532Z,6.59
2023-04-13T06:55:21.658Z,6.63
2023-04-13T06:57:24.422Z,6.73
2023-04-13T06:59:28.769Z,6.75
2023-04-13T07:01:31.615Z,6.80
2023-04-13T07:03:35.214Z,6.67
2023-04-13T07:05:39.773Z,6.67
2023-04-13T07:07:47.664Z,6.72
2023-04-13T07:09:50.743Z,6.83
2023-04-13T07:11:53.485Z,6.86
2023-04-13T07:13:57.093Z,6.91
2023-04-13T07:16:02.675Z,6.95
2023-04-13T07:18:07.116Z,7.03
2023-04-13T07:20:10.970Z,7.00
2023-04-13T07:22:13.730Z,6.90
2023-04-13T07:24:16.882Z,7.03
2023-04-13T07:26:21.078Z,6.75
2023-04-13T07:28:24.174Z,6.60
2023-04-13T07:30:30.492Z,7.25
2023-04-13T07:32:35.100Z,7.35
2023-04-13T07:34:38.481Z,7.37
2023-04-13T07:36:42.419Z,7.07
2023-04-13T07:38:48.472Z,7.46
2023-04-13T07:40:53.395Z,6.81
2023-04-13T07:42:56.820Z,7.59
2023-04-13T07:45:00.544Z,7.61
2023-04-13T07:47:05.375Z,7.13
2023-04-13T07:49:10.906Z,7.91
2023-04-13T07:51:18.500Z,7.84
2023-04-13T07:53:22.364Z,6.49
2023-04-13T07:55:25.587Z,7.67
2023-04-13T07:57:28.541Z,7.64
2023-04-13T07:59:36.460Z,7.62
2023-04-13T08:01:39.300Z,7.71
2023-04-13T08:03:43.431Z,6.22
2023-04-13T08:05:53.847Z,7.30
2023-04-13T08:07:56.573Z,7.12
2023-04-13T08:10:03.346Z,7.58
2023-04-13T08:12:06.995Z,7.70
2023-04-13T08:14:12.116Z,7.79
2023-04-13T08:16:16.962Z,8.02
2023-04-13T08:18:20.579Z,7.94
2023-04-13T08:20:24.387Z,8.11
2023-04-13T08:22:30.859Z,8.16
2023-04-13T08:24:33.702Z,8.30
2023-04-13T08:26:36.484Z,7.67
2023-04-13T08:28:39.224Z,8.10
2023-04-13T08:30:42.558Z,7.91
2023-04-13T08:32:45.379Z,7.41
2023-04-13T08:34:48.655Z,7.89
2023-04-13T08:36:55.014Z,7.79
2023-04-13T08:39:02.329Z,7.81
2023-04-13T08:41:05.388Z,7.44
2023-04-13T08:43:09.750Z,7.82
2023-04-13T08:45:14.576Z,8.10
2023-04-13T08:47:22.359Z,8.36
2023-04-13T08:49:29.092Z,8.82
2023-04-13T08:51:52.997Z,8.72
2023-04-13T08:53:57.074Z,9.03
2023-04-13T08:56:09.532Z,9.49
2023-04-13T08:58:14.722Z,9.38
2023-04-13T09:00:19.396Z,9.37
2023-04-13T09:02:26.226Z,9.23
2023-04-13T09:04:36.951Z,9.15
2023-04-13T09:06:43.367Z,9.01
2023-04-13T09:08:48.176Z,8.85
2023-04-13T09:10:52.142Z,8.71
2023-04-13T09:12:56.376Z,8.68
2023-04-13T09:14:59.233Z,8.78
2023-04-13T09:17:07.629Z,8.77
2023-04-13T09:19:14.308Z,8.66
2023-04-13T09:21:17.978Z,8.12
2023-04-13T09:23:20.802Z,8.16
2023-04-13T09:25:24.914Z,8.09
2023-04-13T09:27:27.656Z,8.35
2023-04-13T09:29:32.308Z,7.93
2023-04-13T09:31:35.476Z,8.00
2023-04-13T09:33:45.926Z,8.06
2023-04-13T09:35:48.844Z,7.98
2023-04-13T09:37:56.007Z,8.10
2023-04-13T09:40:10.638Z,8.41
2023-04-13T09:42:15.598Z,8.45
2023-04-13T09:44:20.401Z,8.30
2023-04-13T09:46:24.649Z,8.84
2023-04-13T09:48:27.657Z,9.08
2023-04-13T09:50:33.781Z,9.13
2023-04-13T09:52:36.548Z,9.25
2023-04-13T09:54:39.360Z,9.10
2023-04-13T09:56:52.541Z,8.77
2023-04-13T09:58:55.281Z,8.62
2023-04-13T10:00:59.188Z,8.46
2023-04-13T10:03:04.108Z,8.00
2023-04-13T10:05:09.853Z,8.24
2023-04-13T10:07:13.285Z,8.07
2023-04-13T10:09:16.523Z,7.92
2023-04-13T10:11:19.499Z,7.59
2023-04-13T10:13:26.920Z,7.77
2023-04-13T10:15:47.263Z,8.03
2023-04-13T10:18:00.385Z,7.69
2023-04-13T10:20:10.984Z,8.95
2023-04-13T10:22:15.507Z,9.43
2023-04-13T10:24:20.053Z,9.77
2023-04-13T10:26:31.512Z,9.97
2023-04-13T10:28:43.131Z,9.69
2023-04-13T10:30:50.870Z,9.65
2023-04-13T10:33:03.770Z,9.31
2023-04-13T10:35:12.283Z,9.62
2023-04-13T10:37:19.455Z,9.18
2023-04-13T10:39:27.860Z,9.81
2023-04-13T10:41:30.762Z,9.93
2023-04-13T10:43:34.844Z,9.57
2023-04-13T10:45:37.926Z,9.60
2023-04-13T10:47:40.746Z,9.43
2023-04-13T10:49:44.714Z,7.98
2023-04-13T10:51:48.771Z,9.29
2023-04-13T10:53:51.535Z,9.79
2023-04-13T10:55:54.244Z,9.60
2023-04-13T10:57:58.330Z,9.70
2023-04-13T11:00:01.586Z,10.13
2023-04-13T11:02:07.650Z,10.66
2023-04-13T11:04:14.065Z,11.02
2023-04-13T11:06:20.047Z,10.55
2023-04-13T11:08:24.340Z,10.75
2023-04-13T11:10:28.251Z,11.36
2023-04-13T11:12:31.145Z,11.55
2023-04-13T11:14:36.107Z,10.78
2023-04-13T11:16:45.924Z,11.38
2023-04-13T11:18:48.710Z,11.84
2023-04-13T11:20:52.196Z,12.21
2023-04-13T11:22:57.456Z,12.41
2023-04-13T11:25:09.228Z,9.99
2023-04-13T11:27:17.901Z,10.86
2023-04-13T11:29:21.724Z,11.10
2023-04-13T11:31:24.644Z,10.69
2023-04-13T11:33:29.976Z,11.01
2023-04-13T11:35:33.012Z,11.00
2023-04-13T11:37:39.584Z,11.90
2023-04-13T11:39:43.824Z,11.43
2023-04-13T11:41:47.971Z,11.22
2023-04-13T11:43:50.765Z,10.89
2023-04-13T11:45:54.789Z,10.99
2023-04-13T11:47:59.063Z,8.92
2023-04-13T11:50:02.201Z,10.52
2023-04-13T11:52:05.280Z,10.17
2023-04-13T11:54:08.155Z,9.68
2023-04-13T11:56:10.953Z,8.31
2023-04-13T11:58:18.780Z,8.75
2023-04-13T12:00:25.930Z,9.22
2023-04-13T12:02:30.085Z,8.87
2023-04-13T12:04:40.857Z,8.98
2023-04-13T12:06:46.232Z,9.10
2023-04-13T12:08:54.582Z,8.91
2023-04-13T12:11:24.996Z,8.36
2023-04-13T12:13:36.028Z,8.87
2023-04-13T12:16:02.321Z,8.89
2023-04-13T12:18:14.770Z,8.60
2023-04-13T12:20:19.390Z,8.83
2023-04-13T12:22:23.925Z,8.83
2023-04-13T12:24:38.572Z,8.49
2023-04-13T12:27:17.020Z,8.31
2023-04-13T12:29:06.762Z,8.32
2023-04-13T12:31:12.490Z,7.92
2023-04-13T12:33:15.444Z,7.54
2023-04-13T12:35:19.352Z,7.60
2023-04-13T12:37:22.155Z,7.50
2023-04-13T12:39:24.939Z,7.74
2023-04-13T12:41:28.039Z,7.92
2023-04-13T12:43:31.164Z,7.47
2023-04-13T12:45:35.278Z,7.48
2023-04-13T12:47:38.436Z,7.47
2023-04-13T12:49:41.200Z,7.10
2023-04-13T12:51:43.968Z,7.60
2023-04-13T12:53:46.712Z,8.11
2023-04-13T12:55:49.553Z,7.86
2023-04-13T12:57:52.494Z,9.72
2023-04-13T12:59:55.357Z,9.62
2023-04-13T13:01:59.564Z,9.66
2023-04-13T13:04:02.481Z,10.45
2023-04-13T13:06:06.367Z,10.90
2023-04-13T13:08:09.324Z,10.17
2023-04-13T13:10:28.943Z,10.89
2023-04-13T13:12:32.567Z,10.78
2023-04-13T13:14:35.477Z,11.46
2023-04-13T13:16:38.291Z,10.66
2023-04-13T13:18:50.403Z,11.06
2023-04-13T13:20:54.439Z,10.33
2023-04-13T13:22:57.698Z,10.60
2023-04-13T13:25:00.492Z,10.77
2023-04-13T13:27:37.444Z,11.34
2023-04-13T13:29:27.984Z,11.48
2023-04-13T13:31:31.343Z,10.69
2023-04-13T13:33:34.127Z,10.05
2023-04-13T13:35:38.185Z,10.58
2023-04-13T13:37:40.948Z,11.26
2023-04-13T13:39:43.751Z,11.84
2023-04-13T13:41:46.450Z,10.92
2023-04-13T13:43:49.227Z,12.74
2023-04-13T13:45:52.000Z,13.39
2023-04-13T13:47:58.076Z,13.43
2023-04-13T13:50:11.728Z,13.55
2023-04-13T13:52:20.054Z,13.12
2023-04-13T13:54:27.903Z,13.21
2023-04-13T13:56:30.686Z,11.73
2023-04-13T13:58:33.530Z,10.56
2023-04-13T14:00:36.734Z,10.50
2023-04-13T14:02:39.723Z,10.54
2023-04-13T14:04:43.040Z,9.59
2023-04-13T14:06:47.476Z,9.58
2023-04-13T14:08:55.743Z,9.57
2023-04-13T14:10:59.308Z,9.55
2023-04-13T14:13:02.075Z,10.07
2023-04-13T14:15:05.312Z,10.63
2023-04-13T14:17:08.080Z,10.41
2023-04-13T14:19:10.929Z,11.29
2023-04-13T14:21:13.762Z,10.94
2023-04-13T14:23:16.666Z,11.11
2023-04-13T14:25:20.860Z,11.24
2023-04-13T14:27:23.641Z,13.25
2023-04-13T14:29:26.351Z,11.10
2023-04-13T14:31:29.090Z,11.14
2023-04-13T14:33:32.044Z,12.67
2023-04-13T14:35:35.058Z,14.88
2023-04-13T14:37:37.833Z,15.62
2023-04-13T14:39:40.895Z,16.59
2023-04-13T14:41:46.378Z,14.90
2023-04-13T14:43:49.089Z,13.41
2023-04-13T14:45:53.582Z,12.51
2023-04-13T14:47:56.406Z,11.55
2023-04-13T14:49:59.650Z,11.59
2023-04-13T14:52:02.380Z,10.71
2023-04-13T14:54:05.476Z,10.48
2023-04-13T14:56:08.215Z,10.22
2023-04-13T14:58:12.571Z,10.33
2023-04-13T15:00:21.412Z,10.69
2023-04-13T15:02:24.274Z,10.77
2023-04-13T15:04:29.713Z,11.20
2023-04-13T15:06:33.957Z,11.54
2023-04-13T15:08:36.775Z,12.38
2023-04-13T15:10:39.918Z,10.83
2023-04-13T15:12:42.637Z,11.71
2023-04-13T15:14:46.816Z,11.47
2023-04-13T15:16:49.642Z,11.34
2023-04-13T15:18:52.463Z,11.14
2023-04-13T15:20:55.282Z,11.81
2023-04-13T15:22:58.981Z,11.46
2023-04-13T15:25:01.722Z,11.76
2023-04-13T15:27:04.589Z,11.93
2023-04-13T15:29:07.392Z,11.54
2023-04-13T15:31:11.495Z,12.15
2023-04-13T15:33:14.310Z,12.72
2023-04-13T15:35:17.331Z,13.21
2023-04-13T15:37:20.054Z,13.38
2023-04-13T15:39:22.973Z,14.06
2023-04-13T15:41:27.410Z,13.45
2023-04-13T15:43:33.357Z,13.34
2023-04-13T15:45:36.412Z,13.82
2023-04-13T15:47:40.689Z,13.00
2023-04-13T15:49:43.613Z,13.00
2023-04-13T15:51:46.362Z,13.06
2023-04-13T15:53:49.165Z,12.88
2023-04-13T15:55:52.125Z,12.63
2023-04-13T15:57:56.048Z,12.32
2023-04-13T15:59:58.889Z,12.02
2023-04-13T16:02:02.337Z,10.19
2023-04-13T16:04:06.839Z,10.31
2023-04-13T16:06:10.685Z,10.60
2023-04-13T16:08:14.518Z,11.04
2023-04-13T16:10:19.146Z,10.91
2023-04-13T16:12:22.910Z,10.44
2023-04-13T16:14:25.626Z,10.69
2023-04-13T16:16:28.470Z,10.48
2023-04-13T16:18:32.711Z,10.38
2023-04-13T16:20:37.680Z,10.08
2023-04-13T16:22:41.966Z,8.84
2023-04-13T16:24:44.712Z,9.89
2023-04-13T16:26:47.596Z,9.78
2023-04-13T16:28:51.194Z,9.64
2023-04-13T16:30:54.198Z,9.40
2023-04-13T16:32:57.088Z,9.47
2023-04-13T16:35:00.128Z,9.22
2023-04-13T16:37:04.701Z,9.20
2023-04-13T16:39:12.023Z,9.14
2023-04-13T16:41:16.816Z,9.14
2023-04-13T16:43:19.577Z,9.13
2023-04-13T16:45:24.399Z,9.17
2023-04-13T16:47:27.231Z,9.16
2023-04-13T16:49:30.085Z,9.12
2023-04-13T16:51:32.937Z,8.26
2023-04-13T16:53:37.167Z,9.10
2023-04-13T16:55:39.947Z,9.03
2023-04-13T16:57:43.709Z,8.86
2023-04-13T16:59:46.517Z,8.34
2023-04-13T17:01:49.484Z,8.70
2023-04-13T17:03:52.828Z,8.78
2023-04-13T17:05:56.343Z,8.76
2023-04-13T17:07:59.128Z,7.90
2023-04-13T17:10:04.225Z,8.57
2023-04-13T17:12:07.283Z,7.87
2023-04-13T17:14:10.165Z,8.68
2023-04-13T17:16:13.027Z,8.76
2023-04-13T17:18:16.296Z,8.24
2023-04-13T17:20:19.836Z,8.68
2023-04-13T17:22:23.409Z,8.05
2023-04-13T17:24:26.149Z,8.73
2023-04-13T17:26:30.260Z,8.79
2023-04-13T17:28:33.174Z,8.88
2023-04-13T17:30:36.535Z,8.92
2023-04-13T17:32:39.364Z,8.61
2023-04-13T17:34:42.224Z,8.21
2023-04-13T17:36:46.224Z,8.25
2023-04-13T17:38:49.022Z,8.87
2023-04-13T17:40:52.128Z,8.55
2023-04-13T17:42:56.989Z,8.32
2023-04-13T17:44:59.774Z,8.95
2023-04-13T17:47:02.610Z,9.16
2023-04-13T17:49:05.419Z,8.94
2023-04-13T17:51:11.351Z,5.95
2023-04-13T17:53:14.756Z,7.47
2023-04-13T17:55:18.919Z,7.23
2023-04-13T17:57:21.700Z,7.81
2023-04-13T17:59:25.923Z,7.77
2023-04-13T18:01:28.800Z,7.50
2023-04-13T18:03:31.984Z,7.54
2023-04-13T18:05:35.316Z,7.81
2023-04-13T18:07:38.140Z,7.19
2023-04-13T18:09:41.051Z,7.56
2023-04-13T18:11:43.976Z,7.70
2023-04-13T18:13:46.778Z,7.47
2023-04-13T18:15:51.024Z,6.90
2023-04-13T18:17:53.956Z,7.71
2023-04-13T18:19:56.827Z,7.70
2023-04-13T18:21:59.629Z,7.67
2023-04-13T18:24:02.921Z,7.62
2023-04-13T18:26:06.245Z,6.91
2023-04-13T18:28:09.124Z,7.55
2023-04-13T18:30:13.721Z,7.55
2023-04-13T18:32:17.895Z,7.45
2023-04-13T18:34:20.713Z,7.38
2023-04-13T18:36:24.649Z,7.31
2023-04-13T18:38:27.498Z,7.23
2023-04-13T18:40:30.406Z,7.20
2023-04-13T18:42:33.918Z,7.17
2023-04-13T18:44:36.655Z,6.70
2023-04-13T18:46:39.579Z,7.06
2023-04-13T18:48:43.845Z,6.75
2023-04-13T18:50:48.304Z,6.47
2023-04-13T18:52:51.120Z,6.33
2023-04-13T18:54:53.955Z,4.73
2023-04-13T18:56:56.685Z,5.77
2023-04-13T18:58:59.386Z,6.00
2023-04-13T19:01:02.138Z,6.15
2023-04-13T19:03:04.970Z,6.23
2023-04-13T19:05:12.788Z,6.18
2023-04-13T19:07:17.316Z,6.25
2023-04-13T19:09:20.053Z,5.93
2023-04-13T19:11:24.476Z,6.11
2023-04-13T19:13:27.177Z,5.86
2023-04-13T19:15:30.735Z,6.10
2023-04-13T19:17:34.208Z,6.10
2023-04-13T19:19:37.073Z,6.07
2023-04-13T19:21:41.335Z,6.04
2023-04-13T19:23:44.045Z,6.02
2023-04-13T19:25:46.773Z,5.13
2023-04-13T19:27:50.271Z,5.90
2023-04-13T19:29:53.292Z,5.09
2023-04-13T19:31:56.344Z,5.77
2023-04-13T19:33:59.382Z,5.82
2023-04-13T19:36:05.831Z,5.60
2023-04-13T19:38:10.046Z,5.72
2023-04-13T19:40:15.170Z,5.47
2023-04-13T19:42:17.992Z,5.52
2023-04-13T19:44:21.108Z,5.52
2023-04-13T19:46:23.975Z,4.86
2023-04-13T19:48:28.031Z,5.57
2023-04-13T19:50:30.893Z,5.59
2023-04-13T19:52:33.968Z,4.50
2023-04-13T19:54:38.130Z,5.65
2023-04-13T19:56:40.903Z,5.65
2023-04-13T19:58:43.733Z,5.67
2023-04-13T20:00:47.324Z,5.58
2023-04-13T20:02:52.408Z,4.60
2023-04-13T20:04:55.361Z,5.60
2023-04-13T20:06:58.108Z,5.62
2023-04-13T20:09:08.453Z,5.62
2023-04-13T20:11:12.658Z,5.63
2023-04-13T20:13:15.507Z,5.61
2023-04-13T20:15:18.302Z,5.21
2023-04-13T20:17:21.167Z,5.49
2023-04-13T20:19:25.018Z,4.43
2023-04-13T20:21:30.975Z,5.22
2023-04-13T20:23:35.485Z,5.15
2023-04-13T20:25:39.430Z,5.23
2023-04-13T20:27:44.029Z,5.28
2023-04-13T20:29:46.932Z,5.22
2023-04-13T20:31:49.977Z,5.27
2023-04-13T20:33:52.758Z,5.27
2023-04-13T20:35:56.117Z,5.35
2023-04-13T20:38:00.498Z,3.50
2023-04-13T20:40:06.935Z,5.29
2023-04-13T20:42:11.456Z,5.00
2023-04-13T20:44:21.552Z,5.18
2023-04-13T20:46:25.359Z,4.56
2023-04-13T20:50:35.805Z,5.21
2023-04-13T20:52:41.942Z,5.16
2023-04-13T20:54:46.031Z,5.02
2023-04-13T20:56:49.379Z,5.05
2023-04-13T20:58:55.973Z,5.05
2023-04-13T21:01:00.282Z,5.01
2023-04-13T21:03:04.034Z,4.82
2023-04-13T21:05:08.349Z,3.30
2023-04-13T21:07:12.028Z,3.48
2023-04-13T21:09:14.845Z,4.26
2023-04-13T21:11:17.674Z,4.48
2023-04-13T21:13:21.044Z,4.62
2023-04-13T21:15:23.899Z,2.03
2023-04-13T21:17:28.066Z,4.66
2023-04-13T21:19:32.494Z,4.75
2023-04-13T21:21:36.739Z,4.80
2023-04-13T21:23:39.513Z,4.25
2023-04-13T21:25:44.400Z,4.77
2023-04-13T21:27:47.280Z,4.71
2023-04-13T21:29:50.167Z,4.25
2023-04-13T21:31:53.310Z,4.56
2023-04-13T21:33:59.568Z,4.38
2023-04-13T21:38:08.272Z,4.55
2023-04-13T21:40:11.819Z,4.17
2023-04-13T21:42:14.736Z,4.08
2023-04-13T21:44:29.199Z,4.44
2023-04-13T21:46:32.602Z,4.30
2023-04-13T21:48:35.458Z,4.15
2023-04-13T21:50:39.674Z,3.49
2023-04-13T21:52:42.826Z,3.16
2023-04-13T21:54:45.762Z,3.07
2023-04-13T21:56:49.069Z,3.99
2023-04-13T21:58:52.332Z,3.44
2023-04-13T22:00:55.133Z,3.61
2023-04-13T22:02:58.020Z,4.47
2023-04-13T22:05:00.846Z,4.04
2023-04-13T22:07:05.064Z,4.25
2023-04-13T22:09:07.825Z,4.16
2023-04-13T22:11:10.741Z,3.97
2023-04-13T22:13:13.559Z,4.22
2023-04-13T22:15:16.576Z,4.03
2023-04-13T22:17:19.397Z,4.26
2023-04-13T22:19:22.176Z,4.29
2023-04-13T22:21:26.501Z,4.11
2023-04-13T22:23:30.767Z,4.23
2023-04-13T22:25:33.596Z,4.10
2023-04-13T22:27:39.023Z,4.52
2023-04-13T22:29:42.398Z,4.30
2023-04-13T22:31:45.252Z,4.25
2023-04-13T22:33:48.018Z,4.17
2023-04-13T22:35:51.719Z,1.74
2023-04-13T22:37:54.484Z,4.12
2023-04-13T22:39:59.798Z,4.34
2023-04-13T22:42:02.624Z,4.57
2023-04-13T22:44:06.697Z,2.84
2023-04-13T22:46:09.521Z,4.26
2023-04-13T22:48:12.324Z,4.13
2023-04-13T22:50:15.060Z,4.11
2023-04-13T22:52:21.339Z,4.15
2023-04-13T22:54:24.137Z,4.10
2023-04-13T22:56:28.241Z,4.33
2023-04-13T22:58:31.009Z,4.28
2023-04-13T23:00:33.800Z,4.10
2023-04-13T23:02:36.842Z,3.20
2023-04-13T23:04:40.097Z,3.24
2023-04-13T23:06:42.883Z,3.42
2023-04-13T23:08:47.428Z,4.48
2023-04-13T23:10:50.284Z,3.91
2023-04-13T23:12:54.451Z,4.63
2023-04-13T23:14:57.301Z,4.74
2023-04-13T23:17:00.080Z,4.65
2023-04-13T23:19:03.128Z,4.78
2023-04-13T23:21:13.399Z,4.50
2023-04-13T23:23:16.265Z,3.89
2023-04-13T23:25:19.028Z,4.83
2023-04-13T23:27:21.825Z,4.53
2023-04-13T23:29:26.081Z,3.86
2023-04-13T23:31:29.020Z,4.35
2023-04-13T23:33:31.942Z,4.66
2023-04-13T23:35:34.717Z,4.62
2023-04-13T23:37:37.558Z,4.62
2023-04-13T23:39:40.538Z,2.12
2023-04-13T23:41:43.290Z,4.64
2023-04-13T23:43:46.565Z,4.44
2023-04-13T23:45:52.340Z,4.41
2023-04-13T23:47:55.526Z,4.53
2023-04-13T23:49:58.368Z,4.62
2023-04-13T23:52:01.170Z,4.36
2023-04-13T23:54:04.079Z,4.58
2023-04-13T23:56:07.273Z,4.29
2023-04-13T23:58:10.064Z,4.18
